Time;durP1;ratioP1;P1;durP2;ratioP2;P2;SDS_P1;SDS_P2;PMS_P1;PMS_P2;Temp;Humidity;BMP_temperature;BMP_pressure;BME280_temperature;BME280_humidity;BME280_pressure;Samples;Min_cycle;Max_cycle;Signal;HPM_P1;HPM_P2
2023/10/22 00:02:40;;;;;;;1.23;0.90;;;;;;;;;;4910932;29;20228;-84
2023/10/22 00:05:46;;;;;;;3.90;0.70;;;;;;;;;;4911320;29;20185;-84
2023/10/22 00:08:58;;;;;;;1.23;0.90;;;;;;;;;;4902499;29;20188;-84
2023/10/22 00:12:02;;;;;;;3.23;0.80;;;;;;;;;;4900921;29;20232;-84
2023/10/22 00:15:08;;;;;;;2.40;0.77;;;;;;;;;;4900635;29;20189;-84
2023/10/22 00:18:13;;;;;;;4.17;0.90;;;;;;;;;;4910715;29;20193;-84
2023/10/22 00:21:17;;;;;;;3.33;0.90;;;;;;;;;;4910961;29;20189;-84
2023/10/22 00:24:23;;;;;;;1.93;0.80;;;;;;;;;;4922599;29;20216;-83
2023/10/22 00:27:27;;;;;;;0.80;0.80;;;;;;;;;;4897075;29;20188;-83
2023/10/22 00:30:31;;;;;;;1.87;0.70;;;;;;;;;;4908256;29;20189;-83
2023/10/22 00:33:36;;;;;;;1.33;0.80;;;;;;;;;;4907627;29;20189;-83
2023/10/22 00:36:41;;;;;;;0.80;0.80;;;;;;;;;;4907401;29;20193;-83
2023/10/22 00:39:47;;;;;;;0.90;0.70;;;;;;;;;;4908242;29;20639;-83
2023/10/22 00:42:51;;;;;;;1.20;0.90;;;;;;;;;;4907653;29;20228;-84
2023/10/22 00:45:56;;;;;;;2.50;0.83;;;;;;;;;;4921822;29;20189;-83
2023/10/22 00:49:01;;;;;;;1.10;0.90;;;;;;;;;;4901104;29;20193;-83
2023/10/22 00:52:05;;;;;;;1.43;0.80;;;;;;;;;;4910976;29;20225;-83
2023/10/22 00:55:13;;;;;;;1.67;1.00;;;;;;;;;;4922200;29;20532;-83
2023/10/22 00:58:20;;;;;;;0.70;0.70;;;;;;;;;;4911246;29;20185;-83
2023/10/22 01:01:24;;;;;;;1.17;1.00;;;;;;;;;;4911215;29;20193;-83
2023/10/22 01:04:28;;;;;;;1.03;0.80;;;;;;;;;;4911104;29;20259;-83
2023/10/22 01:07:33;;;;;;;2.80;1.00;;;;;;;;;;4921719;29;20638;-83
2023/10/22 01:10:38;;;;;;;3.63;0.83;;;;;;;;;;4911245;29;20189;-83
2023/10/22 01:13:44;;;;;;;1.23;0.80;;;;;;;;;;4900294;29;20189;-83
2023/10/22 01:16:49;;;;;;;1.20;1.10;;;;;;;;;;4900375;29;20189;-83
2023/10/22 01:19:53;;;;;;;1.53;0.90;;;;;;;;;;4911435;29;20185;-83
2023/10/22 01:23:00;;;;;;;4.57;1.10;;;;;;;;;;4910790;29;20228;-83
2023/10/22 01:26:07;;;;;;;1.60;1.00;;;;;;;;;;4899823;29;20189;-83
2023/10/22 01:29:11;;;;;;;1.40;1.00;;;;;;;;;;4910460;29;20189;-83
2023/10/22 01:32:17;;;;;;;2.27;1.20;;;;;;;;;;4911288;29;20229;-83
2023/10/22 01:35:22;;;;;;;3.53;1.00;;;;;;;;;;4921766;29;20189;-83
2023/10/22 01:38:27;;;;;;;2.57;1.40;;;;;;;;;;4899820;29;20189;-83
2023/10/22 01:41:32;;;;;;;1.07;0.97;;;;;;;;;;4899822;29;20224;-83
2023/10/22 01:44:37;;;;;;;4.23;1.00;;;;;;;;;;4922264;29;20678;-83
2023/10/22 01:47:48;;;;;;;3.70;1.30;;;;;;;;;;4888965;29;20189;-83
2023/10/22 01:50:54;;;;;;;1.50;1.10;;;;;;;;;;4910505;29;20181;-83
2023/10/22 01:53:58;;;;;;;1.70;1.20;;;;;;;;;;4909986;29;20642;-83
2023/10/22 01:57:02;;;;;;;1.37;1.00;;;;;;;;;;4919801;29;20638;-83
2023/10/22 02:00:10;;;;;;;1.13;1.03;;;;;;;;;;4910340;29;20188;-83
2023/10/22 02:03:19;;;;;;;2.43;1.30;;;;;;;;;;4921496;29;20220;-83
2023/10/22 02:06:24;;;;;;;1.70;1.20;;;;;;;;;;4899206;29;20180;-83
2023/10/22 02:09:30;;;;;;;1.30;1.20;;;;;;;;;;4899695;29;20185;-83
2023/10/22 02:12:36;;;;;;;4.43;1.20;;;;;;;;;;4910497;29;20239;-83
2023/10/22 02:15:41;;;;;;;1.20;1.00;;;;;;;;;;4887939;29;20177;-82
2023/10/22 02:19:26;;;;;;;1.40;1.27;;;;;;;;;;4907242;29;20208;-82
2023/10/22 02:22:57;;;;;;;3.77;1.40;;;;;;;;;;4912309;29;20217;-82
2023/10/22 02:26:05;;;;;;;2.07;1.20;;;;;;;;;;4898773;29;20225;-83
2023/10/22 02:29:09;;;;;;;1.63;1.07;;;;;;;;;;4898220;29;20193;-82
2023/10/22 02:32:15;;;;;;;1.50;1.30;;;;;;;;;;4919662;29;20224;-82
2023/10/22 02:35:19;;;;;;;1.10;1.00;;;;;;;;;;4898447;29;20181;-83
2023/10/22 02:38:24;;;;;;;1.80;1.00;;;;;;;;;;4908414;29;20197;-83
2023/10/22 02:41:35;;;;;;;3.33;1.37;;;;;;;;;;4897834;29;20531;-82
2023/10/22 02:44:39;;;;;;;1.17;1.07;;;;;;;;;;4897862;29;20221;-82
2023/10/22 02:47:46;;;;;;;2.07;1.10;;;;;;;;;;4897649;29;20523;-83
2023/10/22 02:50:51;;;;;;;2.43;1.00;;;;;;;;;;4897822;29;20188;-82
2023/10/22 02:53:55;;;;;;;1.97;1.30;;;;;;;;;;4897409;29;20188;-83
2023/10/22 02:57:03;;;;;;;3.67;1.30;;;;;;;;;;4897938;29;20189;-83
2023/10/22 03:00:12;;;;;;;1.30;1.20;;;;;;;;;;4897346;29;20635;-82
2023/10/22 03:03:19;;;;;;;1.77;1.13;;;;;;;;;;4908211;29;20705;-82
2023/10/22 03:06:25;;;;;;;1.40;1.20;;;;;;;;;;4918882;29;20221;-83
2023/10/22 03:09:30;;;;;;;1.53;1.00;;;;;;;;;;4907911;29;20535;-83
2023/10/22 03:12:34;;;;;;;2.03;1.10;;;;;;;;;;4907948;29;20236;-83
2023/10/22 03:15:39;;;;;;;1.90;1.17;;;;;;;;;;4897631;29;20527;-82
2023/10/22 03:18:45;;;;;;;0.70;0.70;;;;;;;;;;4908030;29;20189;-83
2023/10/22 03:21:51;;;;;;;1.10;0.90;;;;;;;;;;4907609;29;20228;-82
2023/10/22 03:24:56;;;;;;;1.57;0.83;;;;;;;;;;4897026;29;20217;-82
2023/10/22 03:28:00;;;;;;;1.60;0.90;;;;;;;;;;4896494;29;20192;-82
2023/10/22 03:31:05;;;;;;;3.03;0.90;;;;;;;;;;4896358;29;20524;-83
2023/10/22 03:34:10;;;;;;;1.57;0.90;;;;;;;;;;4908083;29;20193;-82
2023/10/22 03:37:14;;;;;;;0.90;0.80;;;;;;;;;;4907698;29;20185;-83
2023/10/22 03:40:19;;;;;;;0.83;0.80;;;;;;;;;;4918317;29;20646;-83
2023/10/22 03:43:23;;;;;;;0.90;0.70;;;;;;;;;;4896794;29;20546;-83
2023/10/22 03:46:28;;;;;;;0.80;0.80;;;;;;;;;;4896634;29;20225;-82
2023/10/22 03:49:33;;;;;;;1.77;1.00;;;;;;;;;;4896790;29;20641;-82
2023/10/22 03:52:37;;;;;;;2.77;0.80;;;;;;;;;;4897316;29;20228;-82
2023/10/22 03:55:46;;;;;;;4.00;0.87;;;;;;;;;;4896643;29;20650;-83
2023/10/22 03:58:50;;;;;;;1.10;0.70;;;;;;;;;;4918634;29;20189;-82
2023/10/22 04:01:56;;;;;;;1.00;0.83;;;;;;;;;;4896881;29;20232;-82
2023/10/22 04:05:02;;;;;;;0.93;0.80;;;;;;;;;;4897303;29;20249;-83
2023/10/22 04:08:07;;;;;;;0.80;0.60;;;;;;;;;;4920342;29;20543;-82
2023/10/22 04:11:12;;;;;;;1.77;0.87;;;;;;;;;;4899050;29;20197;-83
2023/10/22 04:14:16;;;;;;;1.07;0.80;;;;;;;;;;4909260;29;20192;-82
2023/10/22 04:17:22;;;;;;;0.67;0.60;;;;;;;;;;4909634;29;20181;-83
2023/10/22 04:20:26;;;;;;;2.77;0.70;;;;;;;;;;4903552;29;20188;-83
2023/10/22 04:23:31;;;;;;;3.23;0.60;;;;;;;;;;4904577;29;20228;-82
2023/10/22 04:26:36;;;;;;;1.13;0.63;;;;;;;;;;4926340;29;20216;-82
2023/10/22 04:29:42;;;;;;;0.70;0.63;;;;;;;;;;4894204;29;20253;-82
2023/10/22 04:32:49;;;;;;;2.70;0.70;;;;;;;;;;4914569;29;20248;-83
2023/10/22 04:35:54;;;;;;;2.90;0.77;;;;;;;;;;4915288;29;20184;-82
2023/10/22 04:38:58;;;;;;;3.17;0.80;;;;;;;;;;4924787;29;20196;-83
2023/10/22 04:42:03;;;;;;;2.40;0.70;;;;;;;;;;4925155;29;20228;-83
2023/10/22 04:45:34;;;;;;;2.17;0.63;;;;;;;;;;4917589;29;20216;-82
2023/10/22 04:48:38;;;;;;;3.03;0.80;;;;;;;;;;4925108;29;20184;-82
2023/10/22 04:51:42;;;;;;;5.80;1.03;;;;;;;;;;4913801;29;20232;-82
2023/10/22 04:54:47;;;;;;;2.00;0.60;;;;;;;;;;4925574;29;20197;-83
2023/10/22 04:57:51;;;;;;;2.07;0.70;;;;;;;;;;4902996;29;20196;-82
2023/10/22 05:00:56;;;;;;;1.27;0.80;;;;;;;;;;4902458;29;20189;-83
2023/10/22 05:04:01;;;;;;;0.60;0.60;;;;;;;;;;4892401;29;20181;-82
2023/10/22 05:07:05;;;;;;;1.80;0.70;;;;;;;;;;4902488;29;20698;-82
2023/10/22 05:10:10;;;;;;;0.80;0.60;;;;;;;;;;4902451;29;20634;-82
2023/10/22 05:13:16;;;;;;;1.83;0.63;;;;;;;;;;4903973;29;20240;-82
2023/10/22 05:16:21;;;;;;;1.40;0.70;;;;;;;;;;4913824;29;20189;-82
2023/10/22 05:19:27;;;;;;;0.70;0.60;;;;;;;;;;4913779;29;20185;-82
2023/10/22 05:22:32;;;;;;;3.00;0.70;;;;;;;;;;4903258;29;20228;-82
2023/10/22 05:25:37;;;;;;;1.20;0.50;;;;;;;;;;4925470;29;20220;-83
2023/10/22 05:28:45;;;;;;;1.27;0.70;;;;;;;;;;4913983;29;20197;-83
2023/10/22 05:31:50;;;;;;;3.63;0.97;;;;;;;;;;4922195;29;20566;-83
2023/10/22 05:34:54;;;;;;;1.83;0.67;;;;;;;;;;4910936;29;20185;-83
2023/10/22 05:38:02;;;;;;;0.60;0.50;;;;;;;;;;4899731;29;20634;-82
2023/10/22 05:41:08;;;;;;;2.20;0.67;;;;;;;;;;4899454;29;20193;-83
2023/10/22 05:44:13;;;;;;;2.30;1.17;;;;;;;;;;4920823;29;20189;-82
2023/10/22 05:47:18;;;;;;;2.33;0.67;;;;;;;;;;4909824;29;20602;-83
2023/10/22 05:50:22;;;;;;;1.13;0.67;;;;;;;;;;4921908;29;20193;-82
2023/10/22 05:53:26;;;;;;;1.80;0.70;;;;;;;;;;4899029;29;20220;-82
2023/10/22 05:56:37;;;;;;;1.80;0.97;;;;;;;;;;4910444;29;20189;-83
2023/10/22 05:59:43;;;;;;;4.67;1.30;;;;;;;;;;4920652;29;20189;-82
2023/10/22 06:02:47;;;;;;;1.10;1.00;;;;;;;;;;4899173;29;20232;-82
2023/10/22 06:05:52;;;;;;;2.80;1.20;;;;;;;;;;4921628;29;20213;-83
2023/10/22 06:08:57;;;;;;;1.43;1.00;;;;;;;;;;4922890;29;20189;-82
2023/10/22 06:12:01;;;;;;;8.23;5.33;;;;;;;;;;4910331;29;20236;-83
2023/10/22 06:15:05;;;;;;;36.90;21.07;;;;;;;;;;4922089;29;20193;-83
2023/10/22 06:18:12;;;;;;;32.80;21.90;;;;;;;;;;4920587;29;20662;-82
2023/10/22 06:21:17;;;;;;;23.20;15.90;;;;;;;;;;4910327;29;20667;-83
2023/10/22 06:24:21;;;;;;;13.30;8.33;;;;;;;;;;4899085;29;20200;-82
2023/10/22 06:27:26;;;;;;;11.13;8.47;;;;;;;;;;4910127;29;20578;-83
2023/10/22 06:30:30;;;;;;;9.17;5.60;;;;;;;;;;4910072;29;20205;-83
2023/10/22 06:33:35;;;;;;;3.97;2.90;;;;;;;;;;4909583;29;20224;-83
2023/10/22 06:36:39;;;;;;;1.53;1.43;;;;;;;;;;4899678;29;20196;-83
2023/10/22 06:39:43;;;;;;;3.27;2.30;;;;;;;;;;4910517;29;20192;-83
2023/10/22 06:42:48;;;;;;;15.80;12.30;;;;;;;;;;4898920;29;20228;-83
2023/10/22 06:45:59;;;;;;;18.80;14.97;;;;;;;;;;4899668;29;20247;-82
2023/10/22 06:49:04;;;;;;;10.60;6.13;;;;;;;;;;4899737;29;20200;-83
2023/10/22 06:52:10;;;;;;;3.63;2.93;;;;;;;;;;4899109;29;20228;-83
2023/10/22 06:55:14;;;;;;;2.80;1.67;;;;;;;;;;4910127;29;20184;-82
2023/10/22 06:58:29;;;;;;;2.60;1.00;;;;;;;;;;4899009;29;20189;-83
2023/10/22 07:01:37;;;;;;;3.67;1.10;;;;;;;;;;4909706;29;20221;-83
2023/10/22 07:04:44;;;;;;;2.17;1.10;;;;;;;;;;4898532;29;20193;-83
2023/10/22 07:07:49;;;;;;;2.27;1.10;;;;;;;;;;4898170;29;20659;-82
2023/10/22 07:10:57;;;;;;;2.27;0.80;;;;;;;;;;4908614;29;20192;-83
2023/10/22 07:14:06;;;;;;;1.60;1.50;;;;;;;;;;4898470;29;20177;-82
2023/10/22 07:18:02;;;;;;;1.97;1.80;;;;;;;;;;4909055;29;20214;-83
2023/10/22 07:21:48;;;;;;;7.87;6.50;;;;;;;;;;4922374;29;20229;-83
2023/10/22 07:24:59;;;;;;;5.97;5.47;;;;;;;;;;4908288;29;20185;-83
2023/10/22 07:28:12;;;;;;;5.93;5.33;;;;;;;;;;4909253;29;20189;-83
2023/10/22 07:31:17;;;;;;;2.20;1.93;;;;;;;;;;4897498;29;20642;-83
2023/10/22 07:34:30;;;;;;;3.03;1.70;;;;;;;;;;4898435;29;20189;-83
2023/10/22 07:37:37;;;;;;;1.70;1.10;;;;;;;;;;4920247;29;20189;-83
2023/10/22 07:40:44;;;;;;;0.97;0.90;;;;;;;;;;4920071;29;20197;-82
2023/10/22 07:43:48;;;;;;;2.07;1.50;;;;;;;;;;4898512;29;20192;-83
2023/10/22 07:46:52;;;;;;;5.33;0.90;;;;;;;;;;4898670;29;20220;-83
2023/10/22 07:50:00;;;;;;;2.70;1.10;;;;;;;;;;4898582;29;20193;-83
2023/10/22 07:53:04;;;;;;;2.63;0.73;;;;;;;;;;4897827;29;20714;-83
2023/10/22 07:56:10;;;;;;;2.37;0.93;;;;;;;;;;4908755;29;20519;-82
2023/10/22 07:59:14;;;;;;;2.03;0.90;;;;;;;;;;4908408;29;20189;-83
2023/10/22 08:02:20;;;;;;;1.10;0.97;;;;;;;;;;4907912;29;20610;-83
2023/10/22 08:05:24;;;;;;;1.67;1.20;;;;;;;;;;4896238;29;20643;-82
2023/10/22 08:09:10;;;;;;;2.23;1.60;;;;;;;;;;4918648;29;20185;-83
2023/10/22 08:12:33;;;;;;;2.60;1.20;;;;;;;;;;4899327;29;20236;-83
2023/10/22 08:15:54;;;;;;;;;;;;;;;;;;;;;
2023/10/22 08:19:40;;;;;;;2.70;1.00;;;;;;;;;;4906949;29;20639;-83
2023/10/22 08:22:52;;;;;;;1.53;0.80;;;;;;;;;;4917766;29;20690;-83
2023/10/22 08:25:57;;;;;;;2.60;1.10;;;;;;;;;;4907078;29;20181;-83
2023/10/22 08:29:02;;;;;;;1.17;0.90;;;;;;;;;;4907355;29;20189;-83
2023/10/22 08:32:07;;;;;;;1.80;1.10;;;;;;;;;;4906792;29;20591;-83
2023/10/22 08:36:15;;;;;;;4.10;1.80;;;;;;;;;;4907735;29;20193;-83
2023/10/22 08:39:34;;;;;;;5.70;1.80;;;;;;;;;;4907348;29;20185;-83
2023/10/22 08:43:52;;;;;;;1.37;0.67;;;;;;;;;;4902730;29;20217;-83
2023/10/22 08:46:58;;;;;;;2.63;0.87;;;;;;;;;;4917853;29;20217;-83
2023/10/22 08:50:03;;;;;;;1.47;0.60;;;;;;;;;;4906515;29;20185;-85
2023/10/22 08:53:08;;;;;;;2.83;1.40;;;;;;;;;;4917936;29;20690;-85
2023/10/22 08:56:18;;;;;;;2.37;1.00;;;;;;;;;;4895968;29;20189;-83
2023/10/22 08:59:39;;;;;;;1.80;0.87;;;;;;;;;;4895693;29;20185;-83
2023/10/22 09:02:56;;;;;;;1.50;0.60;;;;;;;;;;4893757;29;20224;-83
2023/10/22 09:06:05;;;;;;;1.97;1.03;;;;;;;;;;4897944;29;20532;-83
2023/10/22 09:09:27;;;;;;;1.50;0.70;;;;;;;;;;4922269;29;20540;-84
2023/10/22 09:12:33;;;;;;;3.70;1.10;;;;;;;;;;4899883;29;20224;-84
2023/10/22 09:15:45;;;;;;;1.73;1.00;;;;;;;;;;4922681;29;20634;-83
2023/10/22 09:18:49;;;;;;;3.77;1.27;;;;;;;;;;4901159;29;20197;-83
2023/10/22 09:21:53;;;;;;;3.17;1.20;;;;;;;;;;4921801;29;20232;-84
2023/10/22 09:24:57;;;;;;;2.27;1.20;;;;;;;;;;4911991;29;20193;-83
2023/10/22 09:28:27;;;;;;;1.40;0.47;;;;;;;;;;4911319;29;20220;-83
2023/10/22 09:31:31;;;;;;;0.83;0.40;;;;;;;;;;4912023;29;20224;-83
2023/10/22 09:34:35;;;;;;;1.00;0.70;;;;;;;;;;4922802;29;20540;-83
2023/10/22 09:37:50;;;;;;;1.90;0.60;;;;;;;;;;4911931;29;20193;-84
2023/10/22 09:40:57;;;;;;;1.40;0.70;;;;;;;;;;4900463;29;20527;-83
2023/10/22 09:44:02;;;;;;;3.23;0.60;;;;;;;;;;4911643;29;20189;-83
2023/10/22 09:47:07;;;;;;;3.03;0.70;;;;;;;;;;4922807;29;20221;-83
2023/10/22 09:50:18;;;;;;;1.13;0.40;;;;;;;;;;4921906;29;20193;-83
2023/10/22 09:53:29;;;;;;;1.20;0.60;;;;;;;;;;4911116;29;20682;-84
2023/10/22 09:56:50;;;;;;;2.47;0.70;;;;;;;;;;4910612;29;20182;-83
2023/10/22 10:00:01;;;;;;;4.23;2.40;;;;;;;;;;4910836;29;20528;-83
2023/10/22 10:03:07;;;;;;;2.70;1.80;;;;;;;;;;4910886;29;20583;-84
2023/10/22 10:06:11;;;;;;;2.83;1.33;;;;;;;;;;4910755;29;20185;-84
2023/10/22 10:09:16;;;;;;;2.03;1.00;;;;;;;;;;4911007;29;20186;-84
2023/10/22 10:12:21;;;;;;;1.77;0.70;;;;;;;;;;4921947;29;20579;-84
2023/10/22 10:15:33;;;;;;;2.00;0.80;;;;;;;;;;4911153;29;20189;-84
2023/10/22 10:19:02;;;;;;;2.83;0.80;;;;;;;;;;4909756;29;20185;-84
2023/10/22 10:22:07;;;;;;;1.77;0.70;;;;;;;;;;4899722;29;20220;-84
2023/10/22 10:25:31;;;;;;;1.47;0.80;;;;;;;;;;4910639;29;20193;-83
2023/10/22 10:28:41;;;;;;;1.30;0.57;;;;;;;;;;4899888;29;20568;-84
2023/10/22 10:31:51;;;;;;;1.33;0.80;;;;;;;;;;4910194;29;20221;-84
2023/10/22 10:35:00;;;;;;;2.70;1.00;;;;;;;;;;4910556;29;20185;-84
2023/10/22 10:38:14;;;;;;;1.80;0.60;;;;;;;;;;4899587;29;20177;-84
2023/10/22 10:41:50;;;;;;;1.27;0.83;;;;;;;;;;4910742;29;20647;-84
2023/10/22 10:44:55;;;;;;;3.20;0.87;;;;;;;;;;4922949;29;20193;-84
2023/10/22 10:47:59;;;;;;;3.20;0.90;;;;;;;;;;4921593;29;20220;-84
2023/10/22 10:51:18;;;;;;;1.10;0.60;;;;;;;;;;4910586;29;20193;-84
2023/10/22 10:54:22;;;;;;;2.37;0.80;;;;;;;;;;4910866;29;20532;-84
2023/10/22 10:57:36;;;;;;;2.30;0.73;;;;;;;;;;4899471;29;20535;-84
2023/10/22 11:00:41;;;;;;;1.20;0.60;;;;;;;;;;4910521;29;20189;-84
2023/10/22 11:03:45;;;;;;;1.30;0.50;;;;;;;;;;4922277;29;20193;-84
2023/10/22 11:06:50;;;;;;;4.97;0.67;;;;;;;;;;4909715;29;20189;-84
2023/10/22 11:09:56;;;;;;;2.10;0.60;;;;;;;;;;4898870;29;20193;-84
2023/10/22 11:13:05;;;;;;;1.37;0.50;;;;;;;;;;4909309;29;20228;-84
2023/10/22 11:16:10;;;;;;;1.70;0.50;;;;;;;;;;4910645;29;20189;-84
2023/10/22 11:19:23;;;;;;;1.53;0.50;;;;;;;;;;4919079;29;20185;-84
2023/10/22 11:22:27;;;;;;;1.40;0.60;;;;;;;;;;4897324;29;20220;-84
2023/10/22 11:25:31;;;;;;;2.07;0.60;;;;;;;;;;4908461;29;20196;-84
2023/10/22 11:28:36;;;;;;;1.40;0.67;;;;;;;;;;4898493;29;20220;-84
2023/10/22 11:31:49;;;;;;;3.03;0.63;;;;;;;;;;4905339;29;20228;-84
2023/10/22 11:34:59;;;;;;;2.23;0.83;;;;;;;;;;4919027;29;20189;-84
2023/10/22 11:38:07;;;;;;;2.60;1.50;;;;;;;;;;4897926;29;20181;-83
2023/10/22 11:41:15;;;;;;;1.67;0.50;;;;;;;;;;4908574;29;20193;-84
2023/10/22 11:44:35;;;;;;;2.37;0.60;;;;;;;;;;4897910;29;20631;-83
2023/10/22 11:47:39;;;;;;;1.90;0.60;;;;;;;;;;4907991;29;20682;-84
2023/10/22 11:50:54;;;;;;;1.93;0.60;;;;;;;;;;4909200;29;20193;-84
2023/10/22 11:53:59;;;;;;;3.20;0.70;;;;;;;;;;4919724;29;20189;-84
2023/10/22 11:57:03;;;;;;;0.50;0.50;;;;;;;;;;4908301;29;20193;-84
2023/10/22 12:00:12;;;;;;;2.13;0.60;;;;;;;;;;4919454;29;20185;-84
2023/10/22 12:03:17;;;;;;;0.77;0.37;;;;;;;;;;4918310;29;20220;-83
2023/10/22 12:06:22;;;;;;;0.80;0.53;;;;;;;;;;4907169;29;20189;-84
2023/10/22 12:09:27;;;;;;;1.70;0.80;;;;;;;;;;4886009;29;20181;-84
2023/10/22 12:12:31;;;;;;;1.97;0.67;;;;;;;;;;4907195;29;20478;-84
2023/10/22 12:15:35;;;;;;;1.10;0.60;;;;;;;;;;4908452;29;20185;-84
2023/10/22 12:18:39;;;;;;;3.33;0.70;;;;;;;;;;4908039;29;20200;-84
2023/10/22 12:21:43;;;;;;;2.23;0.57;;;;;;;;;;4907569;29;20228;-84
2023/10/22 12:24:50;;;;;;;1.43;0.50;;;;;;;;;;4919497;29;20523;-84
2023/10/22 12:27:55;;;;;;;2.00;0.60;;;;;;;;;;4907160;29;20217;-84
2023/10/22 12:30:59;;;;;;;3.30;0.70;;;;;;;;;;4896799;29;20188;-84
2023/10/22 12:34:07;;;;;;;2.03;0.60;;;;;;;;;;4897711;29;20639;-84
2023/10/22 12:37:11;;;;;;;1.10;0.60;;;;;;;;;;4920160;29;20193;-84
2023/10/22 12:40:15;;;;;;;3.23;1.83;;;;;;;;;;4898447;29;20196;-84
2023/10/22 12:43:22;;;;;;;15.60;7.70;;;;;;;;;;4912618;29;20220;-84
2023/10/22 12:46:29;;;;;;;1.63;0.80;;;;;;;;;;4902542;29;20219;-85
2023/10/22 12:49:35;;;;;;;1.63;0.70;;;;;;;;;;4924331;29;20190;-84
2023/10/22 12:52:39;;;;;;;2.07;0.70;;;;;;;;;;4913148;29;20220;-85
2023/10/22 12:55:53;;;;;;;1.00;0.67;;;;;;;;;;4922503;29;20193;-85
2023/10/22 12:59:04;;;;;;;3.13;0.70;;;;;;;;;;4891014;29;20519;-85
2023/10/22 13:02:09;;;;;;;3.83;0.60;;;;;;;;;;4921984;29;20689;-84
2023/10/22 13:05:14;;;;;;;1.50;0.53;;;;;;;;;;4922293;29;20189;-83
2023/10/22 13:08:19;;;;;;;1.83;0.90;;;;;;;;;;4922950;29;20208;-84
2023/10/22 13:11:30;;;;;;;2.30;0.93;;;;;;;;;;4921789;29;20188;-84
2023/10/22 13:14:34;;;;;;;2.07;0.60;;;;;;;;;;4922711;29;20185;-84
2023/10/22 13:17:42;;;;;;;1.43;0.60;;;;;;;;;;4910810;29;20627;-84
2023/10/22 13:20:53;;;;;;;3.97;0.80;;;;;;;;;;4922927;29;20189;-84
2023/10/22 13:24:07;;;;;;;2.47;0.50;;;;;;;;;;4910976;29;20189;-84
2023/10/22 13:27:11;;;;;;;0.90;0.37;;;;;;;;;;4910685;29;20198;-84
2023/10/22 13:30:19;;;;;;;0.53;0.40;;;;;;;;;;4922205;29;20185;-84
2023/10/22 13:33:28;;;;;;;1.00;0.47;;;;;;;;;;4910684;29;20228;-84
2023/10/22 13:36:32;;;;;;;2.10;0.57;;;;;;;;;;4910607;29;20189;-84
2023/10/22 13:39:41;;;;;;;4.13;0.60;;;;;;;;;;4899901;29;20181;-84
2023/10/22 13:42:45;;;;;;;2.57;0.50;;;;;;;;;;4888525;29;20225;-84
2023/10/22 13:45:50;;;;;;;1.67;0.60;;;;;;;;;;4924500;29;20189;-85
2023/10/22 13:49:22;;;;;;;2.23;0.50;;;;;;;;;;4911841;29;20551;-85
2023/10/22 13:52:27;;;;;;;1.63;0.77;;;;;;;;;;4909388;29;20225;-84
2023/10/22 13:55:36;;;;;;;0.90;0.50;;;;;;;;;;4899744;29;20193;-84
2023/10/22 13:59:08;;;;;;;1.07;0.50;;;;;;;;;;4911426;29;20189;-84
2023/10/22 14:02:18;;;;;;;0.67;0.50;;;;;;;;;;4912064;29;20217;-84
2023/10/22 14:05:23;;;;;;;1.73;0.77;;;;;;;;;;4900567;29;20536;-84
2023/10/22 14:08:27;;;;;;;2.57;0.67;;;;;;;;;;4922145;29;20213;-84
2023/10/22 14:11:32;;;;;;;3.43;0.60;;;;;;;;;;4922070;29;20220;-84
2023/10/22 14:14:44;;;;;;;1.13;0.70;;;;;;;;;;4899673;29;20190;-83
2023/10/22 14:18:01;;;;;;;0.83;0.60;;;;;;;;;;4911913;29;20520;-84
2023/10/22 14:21:14;;;;;;;2.57;0.60;;;;;;;;;;4899810;29;20639;-83
2023/10/22 14:24:27;;;;;;;0.90;0.53;;;;;;;;;;4902370;29;20197;-83
2023/10/22 14:27:33;;;;;;;3.47;0.80;;;;;;;;;;4910472;29;20524;-84
2023/10/22 14:30:49;;;;;;;1.03;0.43;;;;;;;;;;4932376;29;20189;-83
2023/10/22 14:33:54;;;;;;;2.70;0.70;;;;;;;;;;4900216;29;20190;-83
2023/10/22 14:37:02;;;;;;;3.13;0.50;;;;;;;;;;4910077;29;20184;-84
2023/10/22 14:40:11;;;;;;;2.80;0.60;;;;;;;;;;4910320;29;20177;-84
2023/10/22 14:43:17;;;;;;;1.13;0.53;;;;;;;;;;4910101;29;20229;-84
2023/10/22 14:46:22;;;;;;;4.30;0.60;;;;;;;;;;4909157;29;20189;-84
2023/10/22 14:49:34;;;;;;;1.23;0.43;;;;;;;;;;4909156;29;20674;-84
2023/10/22 14:52:41;;;;;;;1.40;0.60;;;;;;;;;;4929885;29;20224;-84
2023/10/22 14:55:56;;;;;;;1.90;0.60;;;;;;;;;;4920600;29;20193;-84
2023/10/22 14:59:03;;;;;;;1.10;0.60;;;;;;;;;;4909209;29;20189;-84
2023/10/22 15:02:09;;;;;;;1.27;0.53;;;;;;;;;;4908520;29;20232;-84
2023/10/22 15:05:14;;;;;;;1.33;0.50;;;;;;;;;;4908406;29;20555;-83
2023/10/22 15:08:20;;;;;;;1.60;0.67;;;;;;;;;;4909019;29;20213;-84
2023/10/22 15:11:27;;;;;;;1.80;0.50;;;;;;;;;;4898039;29;20193;-84
2023/10/22 15:14:32;;;;;;;1.00;0.60;;;;;;;;;;4908721;29;20181;-84
2023/10/22 15:17:39;;;;;;;1.07;0.43;;;;;;;;;;4908093;29;20185;-84
2023/10/22 15:20:50;;;;;;;0.57;0.40;;;;;;;;;;4898289;29;20189;-84
2023/10/22 15:23:59;;;;;;;1.77;0.70;;;;;;;;;;4908936;29;20189;-84
2023/10/22 15:27:05;;;;;;;1.07;0.50;;;;;;;;;;4898273;29;20189;-83
2023/10/22 15:30:10;;;;;;;1.60;0.50;;;;;;;;;;4919111;29;20221;-84
2023/10/22 15:33:21;;;;;;;2.47;0.60;;;;;;;;;;4919967;29;20221;-84
2023/10/22 15:36:28;;;;;;;1.83;0.60;;;;;;;;;;4898344;29;20643;-84
2023/10/22 15:39:37;;;;;;;0.50;0.40;;;;;;;;;;4898484;29;20181;-83
2023/10/22 15:42:43;;;;;;;1.57;0.50;;;;;;;;;;4897503;29;20228;-84
2023/10/22 15:45:49;;;;;;;4.57;0.67;;;;;;;;;;4897536;29;20642;-83
2023/10/22 15:48:55;;;;;;;2.07;0.90;;;;;;;;;;4897299;29;20221;-84
2023/10/22 15:52:01;;;;;;;3.77;0.50;;;;;;;;;;4919298;29;20229;-84
2023/10/22 15:55:08;;;;;;;0.57;0.33;;;;;;;;;;4908087;29;20532;-83
2023/10/22 15:58:14;;;;;;;2.60;0.60;;;;;;;;;;4896892;29;20544;-84
2023/10/22 16:01:19;;;;;;;2.17;0.80;;;;;;;;;;4897257;29;20201;-83
2023/10/22 16:04:23;;;;;;;3.10;0.60;;;;;;;;;;4918600;29;20189;-85
2023/10/22 16:07:27;;;;;;;1.93;0.60;;;;;;;;;;4908224;29;20189;-84
2023/10/22 16:11:23;;;;;;;1.53;0.40;;;;;;;;;;4907577;29;20659;-84
2023/10/22 16:14:27;;;;;;;2.63;0.77;;;;;;;;;;4907199;29;20181;-84
2023/10/22 16:17:34;;;;;;;1.23;0.73;;;;;;;;;;4919243;29;20193;-84
2023/10/22 16:20:58;;;;;;;3.05;0.65;;;;;;;;;;4918065;29;20688;-84
2023/10/22 16:24:06;;;;;;;1.47;0.50;;;;;;;;;;4907522;29;20197;-88
2023/10/22 16:27:13;;;;;;;0.60;0.37;;;;;;;;;;4907762;29;20185;-84
2023/10/22 16:30:18;;;;;;;1.25;0.60;;;;;;;;;;4917185;29;21076;-85
2023/10/22 16:33:22;;;;;;;1.80;0.70;;;;;;;;;;4918032;29;20733;-84
2023/10/22 16:36:26;;;;;;;2.30;0.70;;;;;;;;;;4918979;29;20192;-83
2023/10/22 16:39:30;;;;;;;2.40;0.90;;;;;;;;;;4918154;29;20193;-84
2023/10/22 16:42:36;;;;;;;1.43;0.60;;;;;;;;;;4896620;29;20228;-84
2023/10/22 16:45:47;;;;;;;1.40;0.60;;;;;;;;;;4919420;29;20205;-85
2023/10/22 16:49:11;;;;;;;1.10;0.60;;;;;;;;;;4908097;29;20217;-85
2023/10/22 16:52:38;;;;;;;0.97;0.60;;;;;;;;;;4919190;29;20254;-85
2023/10/22 16:55:42;;;;;;;1.70;0.67;;;;;;;;;;4908620;29;20197;-85
2023/10/22 16:58:47;;;;;;;2.47;0.70;;;;;;;;;;4907550;29;20180;-85
2023/10/22 17:01:52;;;;;;;2.67;0.70;;;;;;;;;;4919582;29;20216;-85
2023/10/22 17:04:57;;;;;;;1.97;0.53;;;;;;;;;;4920179;29;20189;-85
2023/10/22 17:08:01;;;;;;;1.27;0.47;;;;;;;;;;4918849;29;20197;-84
2023/10/22 17:11:06;;;;;;;1.23;0.60;;;;;;;;;;4906529;29;20185;-84
2023/10/22 17:14:10;;;;;;;2.27;0.80;;;;;;;;;;4919668;29;20662;-85
2023/10/22 17:17:15;;;;;;;1.33;0.60;;;;;;;;;;4907959;29;20205;-84
2023/10/22 17:20:19;;;;;;;2.00;0.70;;;;;;;;;;4918588;29;20599;-84
2023/10/22 17:23:24;;;;;;;1.40;0.80;;;;;;;;;;4918891;29;20228;-84
2023/10/22 17:26:28;;;;;;;1.67;0.60;;;;;;;;;;4919719;29;20188;-85
2023/10/22 17:29:32;;;;;;;0.87;0.67;;;;;;;;;;4921028;29;20213;-85
2023/10/22 17:32:36;;;;;;;1.10;0.50;;;;;;;;;;4910858;29;20228;-85
2023/10/22 17:35:41;;;;;;;2.27;0.70;;;;;;;;;;4921806;29;20189;-85
2023/10/22 17:38:45;;;;;;;2.60;0.80;;;;;;;;;;4922093;29;20196;-85
2023/10/22 17:41:49;;;;;;;1.83;0.80;;;;;;;;;;4922103;29;20228;-85
2023/10/22 17:44:53;;;;;;;3.03;0.70;;;;;;;;;;4922298;29;20189;-85
2023/10/22 17:47:58;;;;;;;2.87;0.80;;;;;;;;;;4910517;29;20189;-85
2023/10/22 17:51:03;;;;;;;0.63;0.63;;;;;;;;;;4922575;29;20180;-85
2023/10/22 17:54:07;;;;;;;0.97;0.60;;;;;;;;;;4921679;29;20189;-84
2023/10/22 17:57:11;;;;;;;2.07;0.67;;;;;;;;;;4922272;29;20189;-85
2023/10/22 18:00:19;;;;;;;1.40;0.80;;;;;;;;;;4910518;29;20192;-85
2023/10/22 18:03:23;;;;;;;1.83;0.60;;;;;;;;;;4921494;29;20568;-84
2023/10/22 18:06:29;;;;;;;1.63;0.60;;;;;;;;;;4909501;29;20185;-84
2023/10/22 18:09:33;;;;;;;2.40;0.80;;;;;;;;;;4921293;29;20687;-85
2023/10/22 18:12:38;;;;;;;1.23;0.70;;;;;;;;;;4909409;29;20240;-84
2023/10/22 18:15:42;;;;;;;0.83;0.50;;;;;;;;;;4921279;29;20184;-85
2023/10/22 18:18:47;;;;;;;1.00;0.70;;;;;;;;;;4909778;29;20200;-85
2023/10/22 18:21:51;;;;;;;1.63;0.70;;;;;;;;;;4921697;29;20706;-84
2023/10/22 18:24:56;;;;;;;2.00;0.70;;;;;;;;;;4909813;29;20200;-85
2023/10/22 18:28:00;;;;;;;1.30;0.60;;;;;;;;;;4908964;29;20197;-84
2023/10/22 18:31:08;;;;;;;2.67;1.07;;;;;;;;;;4920831;29;20694;-84
2023/10/22 18:34:13;;;;;;;1.93;0.77;;;;;;;;;;4898445;29;20186;-85
2023/10/22 18:37:17;;;;;;;3.27;1.00;;;;;;;;;;4919754;29;20193;-85
2023/10/22 18:40:25;;;;;;;2.57;1.00;;;;;;;;;;4898156;29;20185;-85
2023/10/22 18:43:29;;;;;;;1.30;0.70;;;;;;;;;;4909413;29;20701;-85
2023/10/22 18:46:34;;;;;;;2.53;0.97;;;;;;;;;;4920002;29;20185;-85
2023/10/22 18:49:39;;;;;;;2.80;1.10;;;;;;;;;;4921021;29;20555;-85